Time;durP1;ratioP1;P1;durP2;ratioP2;P2;SDS_P1;SDS_P2;PMS_P1;PMS_P2;Temp;Humidity;BMP_temperature;BMP_pressure;BME280_temperature;BME280_humidity;BME280_pressure;Samples;Min_cycle;Max_cycle;Signal;HPM_P1;HPM_P2
2022/01/10 00:02:12;;;;;;;2.95;1.55;;;3.60;99.90;;;;;;5047452;28;20032;-73
2022/01/10 00:04:37;;;;;;;14.20;2.92;;;3.60;99.90;;;;;;5047592;28;20037;-73
2022/01/10 00:07:03;;;;;;;3.92;1.85;;;3.60;99.90;;;;;;5047213;28;20072;-72
2022/01/10 00:09:29;;;;;;;8.45;1.58;;;3.60;99.90;;;;;;5029673;28;20032;-72
2022/01/10 00:11:54;;;;;;;6.05;2.42;;;3.70;99.90;;;;;;5047584;28;20029;-72
2022/01/10 00:14:20;;;;;;;3.88;1.98;;;3.70;99.90;;;;;;5047073;28;20089;-71
2022/01/10 00:16:46;;;;;;;10.02;2.10;;;3.70;99.90;;;;;;5046879;28;20029;-71
2022/01/10 00:19:11;;;;;;;7.82;2.75;;;3.70;99.90;;;;;;5045871;28;20092;-72
2022/01/10 00:21:37;;;;;;;7.03;1.92;;;3.70;99.90;;;;;;5045302;28;20496;-72
2022/01/10 00:24:03;;;;;;;11.77;2.10;;;3.70;99.90;;;;;;5047290;28;20081;-72
2022/01/10 00:26:28;;;;;;;14.63;2.80;;;3.70;99.90;;;;;;5047304;28;20068;-72
2022/01/10 00:28:54;;;;;;;4.32;2.42;;;3.80;99.90;;;;;;5046469;28;20033;-73
2022/01/10 00:31:20;;;;;;;11.05;2.08;;;3.70;99.90;;;;;;5047069;28;20022;-72
2022/01/10 00:33:45;;;;;;;8.73;1.85;;;3.80;99.90;;;;;;5047072;28;20026;-72
2022/01/10 00:36:11;;;;;;;7.85;2.70;;;3.80;99.90;;;;;;5046258;28;20028;-72
2022/01/10 00:38:37;;;;;;;6.40;2.70;;;3.90;99.90;;;;;;5047080;28;20033;-73
2022/01/10 00:41:03;;;;;;;16.23;2.90;;;3.80;99.90;;;;;;5046995;28;20048;-72
2022/01/10 00:43:32;;;;;;;7.85;2.40;;;3.80;99.90;;;;;;5046572;28;20033;-72
2022/01/10 00:45:59;;;;;;;5.78;2.10;;;3.90;99.90;;;;;;5028874;28;20532;-74
2022/01/10 00:48:24;;;;;;;4.95;2.55;;;3.80;99.90;;;;;;5045511;28;20732;-72
2022/01/10 00:50:50;;;;;;;7.22;2.05;;;3.80;99.90;;;;;;5028227;28;20032;-72
2022/01/10 00:53:16;;;;;;;4.25;1.48;;;3.80;99.90;;;;;;5046735;28;20030;-71
2022/01/10 00:55:41;;;;;;;11.20;2.08;;;3.80;99.90;;;;;;5046414;28;20044;-73
2022/01/10 00:58:07;;;;;;;3.92;1.73;;;3.90;99.90;;;;;;5045956;28;20032;-72
2022/01/10 01:00:35;;;;;;;9.48;1.83;;;3.80;99.90;;;;;;5046685;28;20440;-72
2022/01/10 01:03:00;;;;;;;12.55;1.80;;;3.80;99.90;;;;;;5046590;28;20034;-72
2022/01/10 01:05:29;;;;;;;8.35;1.90;;;3.80;99.90;;;;;;5045842;28;20132;-72
2022/01/10 01:07:54;;;;;;;7.53;1.75;;;3.80;99.90;;;;;;5046385;28;20049;-71
2022/01/10 01:12:59;;;;;;;11.73;1.97;;;3.80;99.90;;;;;;5046003;28;20036;-70
2022/01/10 01:15:45;;;;;;;8.20;2.25;;;3.80;99.90;;;;;;5045456;28;20573;-72
2022/01/10 01:18:14;;;;;;;5.65;2.17;;;3.80;99.90;;;;;;5039957;28;20029;-73
2022/01/10 01:26:02;;;;;;;5.35;1.65;;;3.70;99.90;;;;;;5045936;28;20044;-72
2022/01/10 01:28:29;;;;;;;12.75;2.83;;;3.70;99.90;;;;;;5046041;28;20075;-71
2022/01/10 01:30:55;;;;;;;10.07;2.25;;;3.70;99.90;;;;;;5045927;28;20067;-72
2022/01/10 01:33:23;;;;;;;15.80;2.83;;;3.70;99.90;;;;;;5045427;28;20064;-71
2022/01/10 01:35:50;;;;;;;6.15;1.95;;;3.70;99.90;;;;;;5045894;28;20071;-72
2022/01/10 01:38:16;;;;;;;4.45;1.77;;;3.70;99.90;;;;;;5045680;28;20036;-72
2022/01/10 01:40:58;;;;;;;11.60;2.88;;;3.70;99.90;;;;;;5045310;28;20022;-73
2022/01/10 01:43:24;;;;;;;12.13;3.58;;;3.70;99.90;;;;;;5045784;28;20021;-72
2022/01/10 01:45:50;;;;;;;5.60;2.13;;;3.70;99.90;;;;;;5045218;28;20041;-71
2022/01/10 01:48:16;;;;;;;8.65;2.50;;;3.70;99.90;;;;;;5044057;28;20458;-72
2022/01/10 01:50:43;;;;;;;12.82;3.72;;;3.70;99.90;;;;;;5045467;28;20057;-72
2022/01/10 01:53:09;;;;;;;5.88;1.95;;;3.70;99.90;;;;;;5045276;28;20048;-70
2022/01/10 01:55:37;;;;;;;10.85;3.30;;;3.70;99.90;;;;;;5045378;28;20071;-71
2022/01/10 01:58:03;;;;;;;8.50;2.85;;;3.70;99.90;;;;;;5045774;28;20104;-72
2022/01/10 02:00:29;;;;;;;9.38;2.55;;;3.70;99.90;;;;;;5045040;28;20037;-70
2022/01/10 02:02:55;;;;;;;5.25;2.22;;;3.70;99.90;;;;;;5045223;28;20026;-71
2022/01/10 02:05:21;;;;;;;12.32;2.95;;;3.70;99.90;;;;;;5045027;28;20532;-72
2022/01/10 02:07:47;;;;;;;16.73;2.75;;;3.80;99.90;;;;;;5044145;28;20029;-70
2022/01/10 02:10:13;;;;;;;9.07;2.65;;;3.80;99.90;;;;;;5043991;28;20025;-70
2022/01/10 02:12:39;;;;;;;25.60;4.38;;;3.70;99.90;;;;;;5045125;28;20022;-73
2022/01/10 02:15:05;;;;;;;11.35;3.03;;;3.80;99.90;;;;;;5044876;28;20462;-70
2022/01/10 02:17:37;;;;;;;6.47;2.88;;;3.80;99.90;;;;;;5045100;28;20072;-71
2022/01/10 02:20:05;;;;;;;9.70;3.15;;;3.80;99.90;;;;;;5026959;28;20136;-72
2022/01/10 02:22:30;;;;;;;11.55;3.13;;;3.80;99.90;;;;;;5044771;28;20108;-72
2022/01/10 02:24:56;;;;;;;9.85;2.50;;;3.80;99.90;;;;;;5043981;28;20037;-70
2022/01/10 02:27:23;;;;;;;12.82;3.13;;;3.90;99.90;;;;;;5044396;28;20032;-72
2022/01/10 02:29:50;;;;;;;7.63;2.28;;;3.90;99.90;;;;;;5044555;28;20025;-71
2022/01/10 02:32:15;;;;;;;6.63;3.05;;;3.90;99.90;;;;;;5044706;28;20048;-72
2022/01/10 02:34:41;;;;;;;7.35;2.65;;;3.90;99.90;;;;;;5044212;28;20029;-71
2022/01/10 02:37:07;;;;;;;5.38;2.53;;;4.00;99.90;;;;;;5044598;28;20041;-72
2022/01/10 02:39:32;;;;;;;13.25;2.90;;;3.90;99.90;;;;;;5044850;28;20029;-72
2022/01/10 02:41:58;;;;;;;12.57;2.88;;;3.90;99.90;;;;;;5044243;28;20037;-73
2022/01/10 02:44:24;;;;;;;12.27;2.47;;;3.90;99.90;;;;;;5044569;28;20033;-71
2022/01/10 02:46:49;;;;;;;12.65;3.20;;;3.90;99.90;;;;;;5044422;28;20035;-72
2022/01/10 02:49:37;;;;;;;7.15;3.50;;;3.90;99.90;;;;;;5044293;28;20030;-72
2022/01/10 02:52:04;;;;;;;5.80;2.83;;;3.80;99.90;;;;;;5044653;28;20025;-72
2022/01/10 02:54:29;;;;;;;8.02;2.63;;;3.80;99.90;;;;;;5044577;28;20025;-72
2022/01/10 02:56:56;;;;;;;10.23;3.42;;;3.80;99.90;;;;;;5043970;28;20036;-72
2022/01/10 02:59:23;;;;;;;8.63;3.00;;;3.80;99.90;;;;;;5044168;28;20029;-72
2022/01/10 03:01:50;;;;;;;15.18;3.08;;;3.80;99.90;;;;;;5044193;28;20026;-73
2022/01/10 03:04:16;;;;;;;10.38;3.40;;;3.70;99.90;;;;;;5026165;28;20025;-73
2022/01/10 03:06:42;;;;;;;7.35;2.72;;;3.80;99.90;;;;;;5044091;28;20041;-72
2022/01/10 03:09:12;;;;;;;5.63;2.20;;;3.80;99.90;;;;;;5044443;28;20032;-72
2022/01/10 03:11:39;;;;;;;8.27;2.78;;;3.80;99.90;;;;;;5044394;28;20029;-73
2022/01/10 03:14:05;;;;;;;8.02;2.97;;;3.80;99.90;;;;;;5044178;28;20029;-73
2022/01/10 03:16:31;;;;;;;14.30;2.75;;;3.80;99.90;;;;;;5044189;28;20044;-73
2022/01/10 03:18:57;;;;;;;5.53;2.10;;;3.80;99.90;;;;;;5044679;28;20033;-73
2022/01/10 03:21:22;;;;;;;10.65;2.63;;;3.80;99.90;;;;;;5048189;28;20140;-72
2022/01/10 03:23:51;;;;;;;11.35;2.63;;;3.90;99.90;;;;;;5047954;28;20496;-72
2022/01/10 03:26:17;;;;;;;8.38;1.92;;;3.80;99.90;;;;;;5048306;28;20124;-72
2022/01/10 03:28:42;;;;;;;5.43;1.70;;;3.90;99.90;;;;;;5048326;28;20022;-75
2022/01/10 03:31:09;;;;;;;7.15;2.20;;;3.90;99.90;;;;;;5047710;28;20100;-73
2022/01/10 03:33:36;;;;;;;15.00;2.70;;;3.90;99.90;;;;;;5048638;28;20026;-72
2022/01/10 03:36:01;;;;;;;5.80;1.88;;;3.90;99.90;;;;;;5048118;28;20037;-72
2022/01/10 03:38:27;;;;;;;7.75;1.67;;;3.80;99.90;;;;;;5047657;28;20026;-72
2022/01/10 03:40:52;;;;;;;5.70;1.88;;;3.90;99.90;;;;;;5047889;28;20056;-72
2022/01/10 03:43:19;;;;;;;7.80;2.50;;;3.80;99.90;;;;;;5047739;28;20029;-72
2022/01/10 03:45:45;;;;;;;3.05;1.42;;;3.80;99.90;;;;;;5047460;28;20041;-72
2022/01/10 03:48:11;;;;;;;3.45;1.77;;;3.80;99.90;;;;;;5047962;28;20087;-73
2022/01/10 03:50:36;;;;;;;8.35;2.95;;;3.80;99.90;;;;;;5047665;28;20033;-73
2022/01/10 03:53:03;;;;;;;21.23;2.47;;;3.80;99.90;;;;;;5046386;28;20026;-73
2022/01/10 03:55:29;;;;;;;14.57;2.58;;;3.80;99.90;;;;;;5047893;28;20043;-73
2022/01/10 03:57:55;;;;;;;22.55;3.35;;;3.80;99.90;;;;;;5047563;28;20025;-72
2022/01/10 04:00:20;;;;;;;11.30;2.65;;;3.80;99.90;;;;;;5047435;28;20075;-73
2022/01/10 04:02:54;;;;;;;18.73;4.10;;;3.80;99.90;;;;;;5047613;28;20033;-72
2022/01/10 04:05:20;;;;;;;18.50;3.00;;;3.80;99.90;;;;;;5029262;28;20037;-73
2022/01/10 04:07:46;;;;;;;13.23;3.10;;;3.80;99.90;;;;;;5047262;28;20072;-73
2022/01/10 04:10:14;;;;;;;13.65;2.85;;;3.80;99.90;;;;;;5047481;28;20057;-73
2022/01/10 04:12:40;;;;;;;4.10;2.00;;;3.70;99.90;;;;;;5047581;28;20021;-73
2022/01/10 04:15:08;;;;;;;5.63;2.67;;;3.70;99.90;;;;;;5047433;28;20549;-73
2022/01/10 04:17:35;;;;;;;10.45;3.45;;;3.70;99.90;;;;;;5047343;28;20104;-73
2022/01/10 04:20:01;;;;;;;7.82;3.88;;;3.70;99.90;;;;;;5046730;28;20053;-73
2022/01/10 04:22:27;;;;;;;5.28;2.42;;;3.80;99.90;;;;;;5047348;28;20033;-73
2022/01/10 04:24:52;;;;;;;9.05;2.90;;;3.70;99.90;;;;;;5047363;28;20029;-72
2022/01/10 04:27:18;;;;;;;6.03;2.50;;;3.70;99.90;;;;;;5029057;28;20037;-72
2022/01/10 04:29:44;;;;;;;5.72;2.75;;;3.70;99.90;;;;;;5029347;28;20060;-73
2022/01/10 04:32:12;;;;;;;8.00;3.55;;;3.70;99.90;;;;;;5046487;28;20029;-73
2022/01/10 04:34:38;;;;;;;10.18;3.15;;;3.70;99.90;;;;;;5046526;28;20030;-73
2022/01/10 04:37:07;;;;;;;10.80;3.35;;;3.70;99.90;;;;;;5047090;28;20064;-74
2022/01/10 04:39:34;;;;;;;5.55;3.08;;;3.70;99.90;;;;;;5029245;28;20030;-73
2022/01/10 04:41:59;;;;;;;14.10;3.67;;;3.70;99.90;;;;;;5028869;28;20124;-73
2022/01/10 04:44:25;;;;;;;12.75;3.45;;;3.70;99.90;;;;;;5047051;28;20025;-72
2022/01/10 04:46:51;;;;;;;10.73;4.20;;;3.70;99.90;;;;;;5046606;28;20041;-73
2022/01/10 04:49:24;;;;;;;8.52;4.10;;;3.70;99.90;;;;;;5046348;28;20068;-74
2022/01/10 04:51:51;;;;;;;9.15;2.90;;;3.70;99.90;;;;;;5046678;28;20021;-71
2022/01/10 04:54:17;;;;;;;14.80;5.15;;;3.60;99.90;;;;;;5046262;28;20075;-72
2022/01/10 04:56:43;;;;;;;9.13;3.42;;;3.60;99.90;;;;;;5046079;28;20069;-72
2022/01/10 04:59:09;;;;;;;14.20;4.35;;;3.60;99.90;;;;;;5046645;28;20392;-72
2022/01/10 05:01:37;;;;;;;16.85;4.15;;;3.60;99.90;;;;;;5046422;28;20028;-72
2022/01/10 05:04:04;;;;;;;9.50;3.85;;;3.60;99.90;;;;;;5046692;28;20022;-72
2022/01/10 05:06:29;;;;;;;11.88;3.85;;;3.60;99.90;;;;;;5046451;28;20041;-73
2022/01/10 05:08:55;;;;;;;7.15;3.22;;;3.60;99.90;;;;;;5046249;28;20029;-73
2022/01/10 05:11:21;;;;;;;5.47;2.47;;;3.60;99.90;;;;;;5045670;28;20101;-73
2022/01/10 05:13:47;;;;;;;8.57;3.47;;;3.70;99.90;;;;;;5046452;28;20033;-72
2022/01/10 05:16:14;;;;;;;11.45;3.67;;;3.60;99.90;;;;;;5045842;28;20446;-73
2022/01/10 05:18:40;;;;;;;14.85;2.88;;;3.70;99.90;;;;;;5045857;28;20021;-72
2022/01/10 05:21:06;;;;;;;12.48;4.63;;;3.70;99.90;;;;;;5028160;28;20564;-74
2022/01/10 05:23:32;;;;;;;9.77;3.90;;;3.60;99.90;;;;;;5045887;28;20018;-73
2022/01/10 05:25:58;;;;;;;9.10;3.55;;;3.60;99.90;;;;;;5045124;28;20064;-72
2022/01/10 05:28:24;;;;;;;7.25;3.35;;;3.60;99.90;;;;;;5045895;28;20809;-73
2022/01/10 05:30:51;;;;;;;12.85;4.50;;;3.60;99.90;;;;;;5045324;28;20508;-73
2022/01/10 05:33:17;;;;;;;11.73;4.25;;;3.60;99.90;;;;;;5045910;28;20084;-73
2022/01/10 05:35:44;;;;;;;26.27;4.47;;;3.70;99.90;;;;;;5045751;28;20052;-72
2022/01/10 05:38:11;;;;;;;15.95;4.30;;;3.70;99.90;;;;;;5045601;28;20021;-73
2022/01/10 05:40:37;;;;;;;16.33;3.85;;;3.70;99.90;;;;;;5045754;28;20022;-74
2022/01/10 05:43:03;;;;;;;8.93;3.08;;;3.60;99.90;;;;;;5044958;28;20044;-74
2022/01/10 05:45:29;;;;;;;10.88;3.65;;;3.60;99.90;;;;;;5045460;28;20064;-73
2022/01/10 05:47:55;;;;;;;18.02;4.20;;;3.60;99.90;;;;;;5045554;28;20022;-73
2022/01/10 05:50:32;;;;;;;15.82;4.68;;;3.60;99.90;;;;;;5043920;28;20030;-72
2022/01/10 05:52:59;;;;;;;8.27;3.60;;;3.50;99.90;;;;;;5045294;28;20049;-72
2022/01/10 05:55:25;;;;;;;11.52;3.10;;;3.60;99.90;;;;;;5045254;28;20030;-72
2022/01/10 05:57:51;;;;;;;10.30;3.33;;;3.60;99.90;;;;;;5045247;28;20037;-72
2022/01/10 06:00:17;;;;;;;8.98;3.33;;;3.60;99.90;;;;;;5045296;28;20037;-72
2022/01/10 06:02:42;;;;;;;15.18;4.50;;;3.60;99.90;;;;;;5045508;28;20025;-71
2022/01/10 06:05:09;;;;;;;8.13;3.35;;;3.60;99.90;;;;;;5044918;28;20022;-72
2022/01/10 06:07:37;;;;;;;5.95;3.08;;;3.60;99.90;;;;;;5027328;28;20058;-72
2022/01/10 06:10:05;;;;;;;10.02;4.63;;;3.60;99.90;;;;;;5045532;28;20021;-72
2022/01/10 06:12:31;;;;;;;13.20;4.68;;;3.60;99.90;;;;;;5045037;28;20022;-72
2022/01/10 06:14:57;;;;;;;18.35;3.67;;;3.60;99.90;;;;;;5045179;28;20044;-72
2022/01/10 06:17:22;;;;;;;16.38;5.00;;;3.50;99.90;;;;;;5044845;28;20033;-74
2022/01/10 06:19:48;;;;;;;25.02;4.20;;;3.50;99.90;;;;;;5044449;28;20053;-71
2022/01/10 06:22:14;;;;;;;12.73;3.80;;;3.50;99.90;;;;;;5045068;28;20029;-72
2022/01/10 06:24:40;;;;;;;27.45;4.65;;;3.50;99.90;;;;;;5044861;28;20033;-72
2022/01/10 06:27:06;;;;;;;16.90;4.10;;;3.40;99.90;;;;;;5041819;28;20041;-72
2022/01/10 06:29:31;;;;;;;9.98;5.55;;;3.40;99.90;;;;;;5045123;28;20040;-72
2022/01/10 06:31:57;;;;;;;9.07;3.97;;;3.40;99.90;;;;;;5044718;28;20029;-73
2022/01/10 06:34:22;;;;;;;12.38;3.58;;;3.40;99.90;;;;;;5044455;28;20037;-73
2022/01/10 06:36:48;;;;;;;16.58;4.65;;;3.40;99.90;;;;;;5044816;28;20022;-73
2022/01/10 06:39:14;;;;;;;8.95;3.45;;;3.40;99.90;;;;;;5044149;28;20033;-74
2022/01/10 06:41:39;;;;;;;12.32;3.75;;;3.30;99.90;;;;;;5044692;28;20061;-74
2022/01/10 06:44:05;;;;;;;12.57;3.42;;;3.30;99.90;;;;;;5044911;28;20080;-73
2022/01/10 06:46:30;;;;;;;17.42;4.50;;;3.30;99.90;;;;;;5043273;28;20066;-73
2022/01/10 06:48:56;;;;;;;6.15;2.88;;;3.30;99.90;;;;;;5043098;28;20112;-73
2022/01/10 06:51:22;;;;;;;19.27;3.92;;;3.30;99.90;;;;;;5044535;28;20040;-75
2022/01/10 06:53:47;;;;;;;18.67;4.63;;;3.20;99.90;;;;;;5041464;28;20041;-77
2022/01/10 06:56:13;;;;;;;16.85;4.57;;;3.20;99.90;;;;;;5043811;28;20033;-77
2022/01/10 06:58:38;;;;;;;12.57;4.25;;;3.20;99.90;;;;;;5043562;28;20105;-79
2022/01/10 07:01:05;;;;;;;16.13;3.55;;;3.20;99.90;;;;;;5042876;28;20034;-78
2022/01/10 07:03:30;;;;;;;15.57;3.92;;;3.20;99.90;;;;;;5026699;28;20026;-77
2022/01/10 07:05:56;;;;;;;9.85;3.03;;;3.20;99.90;;;;;;5037599;28;20046;-77
2022/01/10 07:08:22;;;;;;;10.07;4.00;;;3.10;99.90;;;;;;5023620;28;20026;-76
2022/01/10 07:10:48;;;;;;;9.77;4.13;;;3.10;99.90;;;;;;5031585;28;20067;-77
2022/01/10 07:13:14;;;;;;;16.95;5.00;;;3.10;99.90;;;;;;5027589;28;20036;-77
2022/01/10 07:15:41;;;;;;;14.88;4.38;;;3.10;99.90;;;;;;5042925;28;20124;-77
2022/01/10 07:18:07;;;;;;;21.20;3.80;;;3.10;99.90;;;;;;5043428;28;20075;-78
2022/01/10 07:20:33;;;;;;;9.38;4.75;;;3.00;99.90;;;;;;5043361;28;20072;-77
2022/01/10 07:22:58;;;;;;;8.77;3.42;;;3.00;99.90;;;;;;5043977;28;20029;-77
2022/01/10 07:25:24;;;;;;;14.32;3.45;;;3.00;99.90;;;;;;5044199;28;20505;-75
2022/01/10 07:27:50;;;;;;;7.97;3.40;;;3.00;99.90;;;;;;5043398;28;20531;-77
2022/01/10 07:30:15;;;;;;;9.63;3.42;;;3.00;99.90;;;;;;5024825;28;20082;-76
2022/01/10 07:32:42;;;;;;;11.15;4.43;;;3.00;99.90;;;;;;5017033;28;20064;-74
2022/01/10 07:35:10;;;;;;;11.95;3.95;;;3.00;99.90;;;;;;5027455;28;20018;-76
2022/01/10 07:37:36;;;;;;;8.77;3.85;;;3.00;99.90;;;;;;5042678;28;20128;-77
2022/01/10 07:40:04;;;;;;;16.70;5.45;;;3.00;99.90;;;;;;5043834;28;20113;-76
2022/01/10 07:42:30;;;;;;;13.18;4.15;;;3.00;99.90;;;;;;5021409;28;20038;-77
2022/01/10 07:44:55;;;;;;;9.75;4.47;;;2.90;99.90;;;;;;5023871;28;20025;-76
2022/01/10 07:47:21;;;;;;;11.75;3.92;;;2.90;99.90;;;;;;5026022;28;20033;-77
2022/01/10 07:49:47;;;;;;;14.27;4.60;;;2.90;99.90;;;;;;5051137;28;20034;-76
2022/01/10 07:52:13;;;;;;;16.27;4.53;;;2.90;99.90;;;;;;5044170;28;20025;-77
2022/01/10 07:54:38;;;;;;;6.40;3.13;;;2.80;99.90;;;;;;5026195;28;20478;-77
2022/01/10 07:57:04;;;;;;;17.40;4.55;;;2.80;99.90;;;;;;5024775;28;20056;-78
2022/01/10 07:59:30;;;;;;;13.65;4.68;;;2.80;99.90;;;;;;5043125;28;20041;-77
2022/01/10 08:01:55;;;;;;;17.70;4.07;;;2.80;99.90;;;;;;5042664;28;20030;-76
2022/01/10 08:04:21;;;;;;;17.60;5.57;;;2.80;99.90;;;;;;5043508;28;20037;-75
2022/01/10 08:06:47;;;;;;;23.90;5.75;;;2.80;99.90;;;;;;5028010;28;20037;-78
2022/01/10 08:09:13;;;;;;;14.52;4.85;;;2.80;99.90;;;;;;5047423;28;20049;-76
2022/01/10 08:11:38;;;;;;;18.33;4.38;;;2.80;99.90;;;;;;5047704;28;20036;-78
2022/01/10 08:14:10;;;;;;;9.77;4.22;;;2.80;99.90;;;;;;5047107;28;20033;-78
2022/01/10 08:16:35;;;;;;;14.70;3.67;;;2.80;99.90;;;;;;5047594;28;20462;-77
2022/01/10 08:19:02;;;;;;;13.90;4.22;;;2.80;99.90;;;;;;5029732;28;20063;-77
2022/01/10 08:21:28;;;;;;;12.23;4.03;;;2.80;99.90;;;;;;5029505;28;20438;-78
2022/01/10 08:23:55;;;;;;;13.18;4.63;;;2.80;99.90;;;;;;5045999;28;20522;-82
2022/01/10 08:26:21;;;;;;;14.48;4.10;;;2.80;99.90;;;;;;5029696;28;20059;-76
2022/01/10 08:28:47;;;;;;;24.15;3.67;;;2.90;99.90;;;;;;5046239;28;20022;-78
2022/01/10 08:31:12;;;;;;;8.15;3.47;;;2.90;99.90;;;;;;5046867;28;20085;-78
2022/01/10 08:33:38;;;;;;;6.18;3.00;;;2.90;99.90;;;;;;5029438;28;20028;-78
2022/01/10 08:36:05;;;;;;;7.50;3.33;;;2.90;99.90;;;;;;5046449;28;20021;-78
2022/01/10 08:38:30;;;;;;;14.05;3.60;;;3.00;99.90;;;;;;5047212;28;20036;-77
2022/01/10 08:40:56;;;;;;;11.90;4.13;;;3.10;99.90;;;;;;5045590;28;20077;-78
2022/01/10 08:43:22;;;;;;;11.60;3.80;;;3.20;99.90;;;;;;5028664;28;20021;-79
2022/01/10 08:45:47;;;;;;;13.27;3.53;;;3.30;99.90;;;;;;5045343;28;20120;-78
2022/01/10 08:48:13;;;;;;;9.85;3.15;;;3.50;99.90;;;;;;5044890;28;20025;-78
2022/01/10 08:50:38;;;;;;;13.40;4.38;;;3.70;99.90;;;;;;5027678;28;20025;-77
2022/01/10 08:53:08;;;;;;;10.90;3.78;;;4.00;99.90;;;;;;5044826;28;20433;-77
2022/01/10 08:55:35;;;;;;;10.88;3.25;;;4.20;99.90;;;;;;5028535;28;20036;-80
2022/01/10 08:58:01;;;;;;;9.77;2.95;;;4.30;99.90;;;;;;5027912;28;20033;-78
2022/01/10 09:00:27;;;;;;;16.95;3.28;;;4.60;99.90;;;;;;5044246;28;20120;-79
2022/01/10 09:02:54;;;;;;;19.50;4.80;;;4.50;99.90;;;;;;5044250;28;20040;-78
2022/01/10 09:05:19;;;;;;;12.20;3.55;;;4.50;99.90;;;;;;5044253;28;20049;-79
2022/01/10 09:07:47;;;;;;;11.82;4.90;;;4.50;99.90;;;;;;5044588;28;20090;-78
2022/01/10 09:10:13;;;;;;;7.85;2.90;;;4.40;99.90;;;;;;5027936;28;20033;-80
2022/01/10 09:12:40;;;;;;;10.25;3.85;;;4.40;99.90;;;;;;5027113;28;20026;-79
2022/01/10 09:15:09;;;;;;;14.40;3.92;;;4.50;99.90;;;;;;5044123;28;20030;-77
2022/01/10 09:17:35;;;;;;;8.77;3.50;;;4.40;99.90;;;;;;5046232;28;20077;-79
2022/01/10 09:20:01;;;;;;;16.98;4.78;;;4.40;99.90;;;;;;5041771;28;20117;-79
2022/01/10 09:22:26;;;;;;;6.40;3.65;;;4.40;99.90;;;;;;5041878;28;20092;-79
2022/01/10 09:24:52;;;;;;;18.73;4.47;;;4.40;99.90;;;;;;5024954;28;20018;-79
2022/01/10 09:27:18;;;;;;;11.95;4.88;;;4.50;99.90;;;;;;5037849;28;20055;-78
2022/01/10 09:29:46;;;;;;;9.63;3.28;;;4.50;99.90;;;;;;5037816;28;20034;-79
2022/01/10 09:32:12;;;;;;;6.82;2.92;;;4.50;99.90;;;;;;5026669;28;20033;-78
2022/01/10 09:34:39;;;;;;;13.30;5.00;;;4.60;99.90;;;;;;5045769;28;20382;-80
2022/01/10 09:37:05;;;;;;;15.02;5.82;;;4.60;99.90;;;;;;5027495;28;20029;-79
2022/01/10 09:39:31;;;;;;;8.75;4.15;;;4.60;99.90;;;;;;5045137;28;20080;-78
2022/01/10 09:41:57;;;;;;;8.45;3.97;;;4.60;99.90;;;;;;5027085;28;20025;-77
2022/01/10 09:44:23;;;;;;;12.48;4.32;;;4.60;99.90;;;;;;5027975;28;20101;-77
2022/01/10 09:46:49;;;;;;;6.22;3.80;;;4.50;99.90;;;;;;5045144;28;20474;-76
2022/01/10 09:49:16;;;;;;;21.75;3.65;;;4.50;99.90;;;;;;5045055;28;20393;-79
2022/01/10 09:51:42;;;;;;;14.45;4.13;;;4.50;99.90;;;;;;5045318;28;20026;-78
2022/01/10 09:54:08;;;;;;;9.23;4.63;;;4.40;99.90;;;;;;5026507;28;20063;-80
2022/01/10 09:56:35;;;;;;;7.75;3.55;;;4.50;99.90;;;;;;5044109;28;20040;-78
2022/01/10 09:59:01;;;;;;;9.05;3.70;;;4.40;99.90;;;;;;5026658;28;20063;-77
2022/01/10 10:01:30;;;;;;;11.95;4.18;;;4.30;99.90;;;;;;5025394;28;20820;-79
2022/01/10 10:03:59;;;;;;;11.65;4.55;;;4.30;99.90;;;;;;5027595;28;20056;-78
2022/01/10 10:06:27;;;;;;;19.50;5.47;;;4.30;99.90;;;;;;5044339;28;20109;-77
2022/01/10 10:08:57;;;;;;;10.20;4.65;;;4.40;99.90;;;;;;5027793;28;20029;-78
2022/01/10 10:11:22;;;;;;;12.13;4.32;;;4.60;99.90;;;;;;5027628;28;20026;-77
2022/01/10 10:13:56;;;;;;;14.98;4.82;;;4.60;99.90;;;;;;5025931;28;20064;-79
2022/01/10 10:16:26;;;;;;;18.52;4.05;;;4.80;99.90;;;;;;5018994;28;20028;-79
2022/01/10 10:18:52;;;;;;;13.02;3.65;;;5.30;99.90;;;;;;5017858;28;20030;-78
2022/01/10 10:21:19;;;;;;;16.73;4.90;;;5.90;99.90;;;;;;5040662;28;20037;-77
2022/01/10 10:23:50;;;;;;;14.93;4.25;;;6.40;99.90;;;;;;5045254;28;20030;-78
2022/01/10 10:26:24;;;;;;;16.25;4.22;;;6.80;99.90;;;;;;5045362;28;20025;-79
2022/01/10 10:28:50;;;;;;;;;;;6.60;99.90;;;;;;5026808;28;20029;-79
2022/01/10 10:31:44;;;;;;;8.13;3.65;;;6.40;99.90;;;;;;5026255;28;19909;-78
2022/01/10 10:34:17;;;;;;;14.18;4.18;;;6.10;99.90;;;;;;5037008;28;20118;-80
2022/01/10 10:36:43;;;;;;;8.65;3.10;;;6.10;99.90;;;;;;5025840;28;20088;-77
2022/01/10 10:39:10;;;;;;;13.15;3.80;;;6.00;99.90;;;;;;5027024;28;20429;-78
2022/01/10 10:41:42;;;;;;;15.13;4.28;;;5.90;99.90;;;;;;5026455;28;20450;-80
2022/01/10 10:44:08;;;;;;;14.45;3.72;;;5.90;99.90;;;;;;5026440;28;20029;-78
2022/01/10 10:46:37;;;;;;;12.93;4.40;;;5.90;99.90;;;;;;5041323;28;20052;-79
2022/01/10 10:49:04;;;;;;;21.40;5.30;;;5.90;99.90;;;;;;5042969;28;20025;-80
2022/01/10 10:51:36;;;;;;;14.45;3.05;;;5.90;99.90;;;;;;5012729;28;20026;-78
2022/01/10 10:54:07;;;;;;;10.07;3.63;;;5.80;99.90;;;;;;5033852;28;20026;-80
2022/01/10 10:56:37;;;;;;;16.50;4.05;;;5.60;99.90;;;;;;5027265;28;20037;-79
2022/01/10 10:59:15;;;;;;;28.48;4.72;;;5.50;99.90;;;;;;5025328;28;20423;-81
2022/01/10 11:02:03;;;;;;;16.50;4.50;;;5.50;99.90;;;;;;5042072;28;20522;-78
2022/01/10 11:04:30;;;;;;;8.65;4.07;;;5.50;99.90;;;;;;5043044;28;20038;-78
2022/01/10 11:06:58;;;;;;;11.32;3.80;;;5.50;99.90;;;;;;5024419;28;20044;-76
2022/01/10 11:09:24;;;;;;;8.18;3.78;;;5.50;99.90;;;;;;5021851;28;20030;-78
2022/01/10 11:11:50;;;;;;;10.90;4.22;;;5.50;99.90;;;;;;5036683;28;20077;-78
2022/01/10 11:14:24;;;;;;;14.52;4.80;;;5.50;99.90;;;;;;5023983;28;20390;-80
2022/01/10 11:16:52;;;;;;;10.77;4.30;;;5.50;99.90;;;;;;5024163;28;20029;-78
2022/01/10 11:19:28;;;;;;;9.23;4.47;;;5.70;99.90;;;;;;5041098;28;20037;-77
2022/01/10 11:22:05;;;;;;;17.27;4.03;;;5.70;99.90;;;;;;5024935;28;20063;-79
2022/01/10 11:24:42;;;;;;;12.73;5.25;;;5.90;99.90;;;;;;5025984;28;20033;-80
2022/01/10 11:27:35;;;;;;;14.65;4.35;;;6.00;99.90;;;;;;5025431;28;20045;-78
2022/01/10 11:30:37;;;;;;;17.23;6.85;;;6.50;99.90;;;;;;5023450;28;20036;-78
2022/01/10 11:33:15;;;;;;;8.52;3.35;;;7.00;99.90;;;;;;4998379;28;20130;-80
2022/01/10 11:35:47;;;;;;;24.08;5.18;;;7.50;99.90;;;;;;5040748;28;20109;-79
2022/01/10 11:38:20;;;;;;;13.57;4.97;;;7.90;99.90;;;;;;5025143;28;20057;-81
2022/01/10 11:40:58;;;;;;;8.00;3.83;;;8.30;99.90;;;;;;5038182;28;20093;-79
2022/01/10 11:43:42;;;;;;;15.60;4.28;;;8.90;99.90;;;;;;5033723;28;20034;-78
2022/01/10 11:46:25;;;;;;;20.58;5.10;;;9.50;99.90;;;;;;5042801;28;20124;-79
2022/01/10 11:49:04;;;;;;;13.68;4.55;;;9.50;99.90;;;;;;5051443;28;20084;-76
2022/01/10 11:51:41;;;;;;;21.30;4.15;;;9.50;99.90;;;;;;5018926;28;20026;-78
2022/01/10 11:54:42;;;;;;;12.93;3.95;;;9.50;99.90;;;;;;5034376;28;20026;-77
2022/01/10 11:57:18;;;;;;;9.25;3.95;;;9.70;99.90;;;;;;5008926;28;20037;-79
2022/01/10 11:59:46;;;;;;;9.32;3.42;;;9.50;99.90;;;;;;5018678;28;20041;-77
2022/01/10 12:02:14;;;;;;;11.77;2.90;;;9.20;99.90;;;;;;5010290;28;20056;-78
2022/01/10 12:04:48;;;;;;;13.23;4.22;;;9.00;99.90;;;;;;5035832;28;20084;-78
2022/01/10 12:07:22;;;;;;;8.10;3.50;;;8.70;99.90;;;;;;5009591;28;20034;-79
2022/01/10 12:09:47;;;;;;;8.88;3.15;;;8.50;99.90;;;;;;5027338;28;20030;-78
2022/01/10 12:12:16;;;;;;;16.85;3.72;;;8.40;99.90;;;;;;5034252;28;20077;-79
2022/01/10 12:14:44;;;;;;;11.48;3.97;;;8.30;99.90;;;;;;5027343;28;20033;-79
2022/01/10 12:17:11;;;;;;;17.02;4.50;;;8.20;99.90;;;;;;5025138;28;20030;-78
2022/01/10 12:19:39;;;;;;;16.60;3.33;;;8.10;99.90;;;;;;5028014;28;20052;-79
2022/01/10 12:22:07;;;;;;;7.38;3.13;;;8.10;99.90;;;;;;5045922;28;20025;-79
2022/01/10 12:24:39;;;;;;;20.75;3.45;;;8.60;99.90;;;;;;5029627;28;20061;-79
2022/01/10 12:27:07;;;;;;;14.63;4.53;;;9.20;99.90;;;;;;5028762;28;20072;-79
2022/01/10 12:29:39;;;;;;;11.98;3.90;;;9.90;99.90;;;;;;5046610;28;20021;-80
2022/01/10 12:32:05;;;;;;;15.32;3.28;;;10.40;99.90;;;;;;5028513;28;20041;-79
2022/01/10 12:34:31;;;;;;;14.50;4.28;;;10.70;99.90;;;;;;5044696;28;20029;-79
2022/01/10 12:36:56;;;;;;;5.35;3.00;;;10.90;99.90;;;;;;5028288;28;20036;-79
2022/01/10 12:39:28;;;;;;;8.70;3.35;;;11.00;99.90;;;;;;5046925;28;20399;-78
2022/01/10 12:41:57;;;;;;;15.52;3.70;;;10.70;99.90;;;;;;5046546;28;20021;-78
2022/01/10 12:44:24;;;;;;;8.88;3.28;;;10.50;99.90;;;;;;5028165;28;20029;-78
2022/01/10 12:46:49;;;;;;;13.40;4.07;;;10.20;99.90;;;;;;5045725;28;20052;-78
2022/01/10 12:49:17;;;;;;;15.73;4.38;;;9.80;99.90;;;;;;5046228;28;20052;-78
2022/01/10 12:51:48;;;;;;;11.82;4.25;;;9.60;99.90;;;;;;5045371;28;20032;-80
2022/01/10 12:54:29;;;;;;;7.95;3.60;;;9.30;99.90;;;;;;5046353;28;20122;-76
2022/01/10 12:56:56;;;;;;;18.83;5.15;;;9.00;99.90;;;;;;5028480;28;20029;-77
2022/01/10 12:59:24;;;;;;;16.02;3.58;;;8.80;99.90;;;;;;5027858;28;20026;-77
2022/01/10 13:01:52;;;;;;;6.78;3.53;;;8.50;99.90;;;;;;5028365;28;20101;-78